Time;durP1;ratioP1;P1;durP2;ratioP2;P2;SDS_P1;SDS_P2;PMS_P1;PMS_P2;Temp;Humidity;BMP_temperature;BMP_pressure;BME280_temperature;BME280_humidity;BME280_pressure;Samples;Min_cycle;Max_cycle;Signal;HPM_P1;HPM_P2
2022/06/07 00:00:37;;;;;;;48.88;21.55;;;;;;;30.90;50.11;97156.47;4899907;29;20056;-65
2022/06/07 00:03:21;;;;;;;52.17;22.13;;;;;;;30.88;50.01;97155.88;4900324;29;20156;-66
2022/06/07 00:06:10;;;;;;;57.70;22.33;;;;;;;30.85;48.78;97156.28;4900390;29;20108;-65
2022/06/07 00:08:59;;;;;;;51.78;22.02;;;;;;;30.78;51.07;97159.81;4898204;29;20052;-66
2022/06/07 00:11:41;;;;;;;62.00;24.55;;;;;;;30.69;45.32;97155.75;4900290;29;20120;-65
2022/06/07 00:14:38;;;;;;;48.47;22.67;;;;;;;30.71;52.24;97159.00;4898320;29;20060;-66
2022/06/07 00:17:15;;;;;;;61.67;24.60;;;;;;;30.65;53.05;97161.72;4886922;29;20072;-65
2022/06/07 00:20:12;;;;;;;52.58;23.38;;;;;;;30.59;51.26;97160.69;4895602;29;20670;-66
2022/06/07 00:22:47;;;;;;;65.40;25.88;;;;;;;30.60;53.39;97166.81;4880471;29;20060;-67
2022/06/07 00:25:37;;;;;;;66.90;25.83;;;;;;;30.53;53.25;97166.03;4893267;29;20132;-65
2022/06/07 00:28:19;;;;;;;59.90;23.98;;;;;;;30.53;53.04;97169.50;4903325;29;20080;-66
2022/06/07 00:31:15;;;;;;;70.88;26.00;;;;;;;30.54;53.87;97171.13;4900884;29;20056;-66
2022/06/07 00:33:52;;;;;;;65.35;25.40;;;;;;;30.55;54.92;97170.13;4906714;29;20052;-67
2022/06/07 00:36:42;;;;;;;66.72;26.35;;;;;;;30.53;55.93;97168.69;4915392;29;20048;-66
2022/06/07 00:39:24;;;;;;;61.85;24.83;;;;;;;30.53;55.39;97174.81;4916971;29;20047;-65
2022/06/07 00:42:13;;;;;;;66.32;26.45;;;;;;;30.53;55.90;97182.78;4917767;29;20424;-64
2022/06/07 00:44:55;;;;;;;57.88;26.45;;;;;;;30.53;56.55;97182.78;4902682;29;20062;-65
2022/06/07 00:47:51;;;;;;;71.25;28.00;;;;;;;30.53;55.16;97190.78;4905353;29;20080;-65
2022/06/07 00:50:27;;;;;;;58.25;26.88;;;;;;;30.56;57.81;97195.69;4899959;29;20079;-64
2022/06/07 00:53:23;;;;;;;51.35;27.40;;;;;;;30.57;55.85;97199.16;4917363;29;20052;-64
2022/06/07 00:56:26;;;;;;;64.10;27.38;;;;;;;30.62;56.72;97208.13;4923376;29;20049;-65
2022/06/07 00:59:16;;;;;;;61.08;28.55;;;;;;;30.68;63.07;97201.97;4899661;29;20056;-65
2022/06/07 01:02:13;;;;;;;65.63;30.23;;;;;;;30.68;61.42;97201.97;4915977;28;20103;-64
2022/06/07 01:04:48;;;;;;;77.70;32.47;;;;;;;30.68;70.23;97193.19;4896370;29;20136;-65
2022/06/07 01:10:53;;;;;;;70.15;31.58;;;;;;;30.55;70.75;97202.03;4891799;29;20059;-66
2022/06/07 01:13:42;;;;;;;76.35;31.38;;;;;;;30.56;63.54;97203.66;4879186;29;20115;-65
2022/06/07 01:16:36;;;;;;;102.03;34.08;;;;;;;30.56;65.84;97219.63;4890453;29;20120;-65
2022/06/07 01:19:27;;;;;;;73.32;31.65;;;;;;;30.65;75.10;97231.63;4881453;29;20367;-66
2022/06/07 01:22:09;;;;;;;74.68;32.17;;;;;;;30.62;71.39;97229.41;4882430;29;20548;-65
2022/06/07 01:25:05;;;;;;;74.15;32.60;;;;;;;30.60;63.94;97236.75;4883220;29;20040;-65
2022/06/07 01:27:42;;;;;;;83.80;32.65;;;;;;;30.58;56.88;97240.66;4896546;29;20633;-65
2022/06/07 01:30:30;;;;;;;78.93;32.80;;;;;;;30.62;68.41;97240.03;4885219;29;20052;-67
2022/06/07 01:33:19;;;;;;;77.97;33.67;;;;;;;30.67;66.89;97232.25;4881695;29;20140;-66
2022/06/07 01:36:11;;;;;;;87.95;34.20;;;;;;;30.80;73.80;97237.56;4862359;29;20608;-67
2022/06/07 01:42:04;;;;;;;89.10;34.85;;;;;;;30.91;54.63;97237.91;4886813;29;20047;-66
2022/06/07 01:44:54;;;;;;;78.43;35.25;;;;;;;31.18;62.64;97250.13;4898298;29;20544;-66
2022/06/07 01:47:35;;;;;;;;;;;;;;;31.39;65.25;97244.50;4910724;29;20471;-66
2022/06/07 01:50:24;;;;;;;82.63;34.88;;;;;;;31.59;68.79;97247.06;4905199;29;19927;-66
2022/06/07 01:53:06;;;;;;;85.75;34.35;;;;;;;31.89;70.43;97252.63;4902072;29;20048;-66
2022/06/07 01:55:55;;;;;;;84.78;37.83;;;;;;;32.17;67.67;97255.69;4905208;29;20060;-66
2022/06/07 01:58:44;;;;;;;84.50;35.22;;;;;;;32.38;70.11;97253.69;4879204;29;20055;-67
2022/06/07 02:01:40;;;;;;;81.60;37.20;;;;;;;32.31;72.11;97256.44;4887121;28;20056;-67
2022/06/07 02:04:29;;;;;;;83.40;36.20;;;;;;;32.36;67.83;97258.44;4905290;29;20123;-67
2022/06/07 02:07:20;;;;;;;102.50;40.65;;;;;;;32.56;69.90;97259.88;4894563;29;20140;-66
2022/06/07 02:10:06;;;;;;;86.90;38.22;;;;;;;32.81;67.48;97256.34;4893694;29;20079;-67
2022/06/07 02:13:05;;;;;;;92.30;39.55;;;;;;;33.09;71.04;97255.84;4900841;29;20052;-65
2022/06/07 02:15:48;;;;;;;92.68;40.58;;;;;;;33.43;70.26;97255.25;4884788;29;20075;-66
2022/06/07 02:18:38;;;;;;;97.28;40.67;;;;;;;33.61;70.81;97257.84;4904076;29;20056;-66
2022/06/07 02:21:27;;;;;;;104.20;42.55;;;;;;;33.99;60.97;97259.41;4888212;29;20052;-67
2022/06/07 02:24:17;;;;;;;87.32;40.92;;;;;;;34.07;68.07;97265.25;4908532;29;20056;-67
2022/06/07 02:27:17;;;;;;;101.13;42.42;;;;;;;34.18;72.50;97263.59;4912584;29;20154;-67
2022/06/07 02:30:06;;;;;;;92.20;41.10;;;;;;;34.41;61.17;97274.34;4898699;29;20060;-67
2022/06/07 02:32:55;;;;;;;100.28;43.20;;;;;;;34.58;63.85;97276.34;4921413;29;20048;-68
2022/06/07 02:35:47;;;;;;;99.03;42.13;;;;;;;34.72;57.10;97277.75;4910499;29;20155;-68
2022/06/07 02:38:31;;;;;;;90.22;44.28;;;;;;;34.96;64.58;97267.88;4908661;29;20056;-68
2022/06/07 02:41:26;;;;;;;90.30;42.50;;;;;;;35.25;58.21;97281.09;4893467;29;20063;-68
2022/06/07 02:44:09;;;;;;;92.90;43.60;;;;;;;35.46;61.96;97276.94;4908748;29;20536;-67
2022/06/07 02:46:58;;;;;;;93.63;44.22;;;;;;;35.58;65.79;97268.88;4909398;29;20615;-68
2022/06/07 02:49:46;;;;;;;88.50;43.80;;;;;;;35.75;58.30;97274.31;4896310;29;20705;-67
2022/06/07 02:52:38;;;;;;;81.50;38.27;;;;;;;35.96;41.28;97274.41;4887393;29;20531;-68
2022/06/07 02:55:26;;;;;;;81.35;35.60;;;;;;;36.34;45.86;97283.63;4913836;29;20136;-67
2022/06/07 02:58:24;;;;;;;85.80;35.83;;;;;;;36.58;48.94;97287.75;4907142;29;20058;-67
2022/06/07 03:01:21;;;;;;;77.10;30.75;;;;;;;36.70;54.85;97280.47;4913113;29;20056;-68
2022/06/07 03:04:17;;;;;;;69.63;31.95;;;;;;;36.83;51.88;97281.97;4913560;29;20055;-68
2022/06/07 03:07:07;;;;;;;68.22;32.17;;;;;;;36.92;48.71;97280.50;4913873;29;20054;-66
2022/06/07 03:09:49;;;;;;;78.80;31.48;;;;;;;37.07;49.74;97278.00;4916820;29;20066;-68
2022/06/07 03:12:40;;;;;;;80.80;27.17;;;;;;;37.24;46.96;97288.72;4891375;29;20567;-68
2022/06/07 03:15:33;;;;;;;58.33;23.73;;;;;;;37.28;44.86;97289.06;4911258;29;20048;-66
2022/06/07 03:18:31;;;;;;;66.93;25.60;;;;;;;37.78;41.93;97295.00;4906431;29;20161;-67
2022/06/07 03:21:08;;;;;;;89.80;26.35;;;;;;;37.77;51.20;97292.56;4910200;29;20290;-66
2022/06/07 03:23:56;;;;;;;76.38;25.02;;;;;;;38.03;45.44;97302.50;4914896;29;20047;-66
2022/06/07 03:26:39;;;;;;;66.10;28.13;;;;;;;38.26;36.53;97306.78;4923606;29;20055;-66
2022/06/07 03:29:29;;;;;;;70.78;28.38;;;;;;;38.54;44.53;97282.28;4917165;29;20172;-67
2022/06/07 03:32:17;;;;;;;83.93;30.48;;;;;;;38.35;43.32;97285.59;4900940;29;20079;-66
2022/06/07 03:35:16;;;;;;;73.30;29.85;;;;;;;38.45;42.53;97291.06;4903311;29;20058;-66
2022/06/07 03:37:53;;;;;;;62.97;26.67;;;;;;;38.76;37.41;97301.00;4889704;29;20487;-67
2022/06/07 03:40:46;;;;;;;56.28;20.90;;;;;;;38.83;29.46;97306.97;4907379;29;20047;-66
2022/06/07 03:43:36;;;;;;;59.67;19.95;;;;;;;39.03;30.47;97304.41;4915211;29;20055;-67
2022/06/07 03:46:30;;;;;;;53.78;17.20;;;;;;;39.18;30.62;97305.56;4900499;29;20052;-66
2022/06/07 03:49:13;;;;;;;63.80;16.15;;;;;;;39.20;31.78;97311.47;4905296;29;20060;-67
2022/06/07 03:52:13;;;;;;;49.22;15.88;;;;;;;39.43;29.59;97304.91;4902642;28;20067;-67
2022/06/07 03:54:49;;;;;;;52.63;15.23;;;;;;;39.60;35.04;97300.88;4935267;28;20423;-67
2022/06/07 03:57:56;;;;;;;54.00;15.15;;;;;;;39.65;32.24;97306.31;4919786;29;20050;-67
2022/06/07 04:00:46;;;;;;;39.83;13.80;;;;;;;39.76;31.88;97310.63;4904284;29;20060;-66
2022/06/07 04:03:29;;;;;;;34.95;14.50;;;;;;;39.85;32.97;97305.56;4910468;28;20134;-65
2022/06/07 04:06:25;;;;;;;51.30;14.48;;;;;;;39.76;29.66;97310.63;4912267;29;20069;-67
2022/06/07 04:09:14;;;;;;;49.00;13.73;;;;;;;40.00;28.28;97308.28;4923113;29;20075;-66
2022/06/07 04:12:04;;;;;;;59.75;13.90;;;;;;;40.06;29.75;97304.53;4904996;29;20150;-67
2022/06/07 04:14:46;;;;;;;41.88;11.82;;;;;;;40.17;28.14;97310.72;4903642;29;20052;-66
2022/06/07 04:17:36;;;;;;;51.53;10.82;;;;;;;39.88;27.26;97315.00;4892164;29;20091;-67
2022/06/07 04:20:28;;;;;;;48.75;11.00;;;;;;;40.15;28.50;97316.38;4865919;29;20068;-66
2022/06/07 04:23:27;;;;;;;37.97;10.20;;;;;;;40.23;27.99;97309.63;4904688;29;20143;-66
2022/06/07 04:26:17;;;;;;;44.97;10.50;;;;;;;40.01;29.09;97311.78;4876530;29;20710;-65
2022/06/07 04:29:07;;;;;;;36.78;9.77;;;;;;;40.33;28.35;97315.06;4890438;29;20044;-68
2022/06/07 04:31:49;;;;;;;37.42;10.95;;;;;;;40.58;31.18;97302.63;4870724;29;20105;-66
2022/06/07 04:34:38;;;;;;;52.28;11.48;;;;;;;40.70;29.65;97309.44;4870541;29;20154;-66
2022/06/07 04:37:37;;;;;;;53.97;13.23;;;;;;;40.67;25.61;97309.13;4899206;29;20146;-65
2022/06/07 04:40:15;;;;;;;50.47;11.65;;;;;;;40.80;31.76;97312.09;4909070;29;20072;-65
2022/06/07 04:43:05;;;;;;;121.60;14.80;;;;;;;40.82;29.24;97312.63;4904306;29;20751;-66
2022/06/07 04:45:48;;;;;;;60.25;13.07;;;;;;;40.82;29.23;97307.22;4889122;29;20045;-64
2022/06/07 04:48:38;;;;;;;42.25;12.07;;;;;;;40.71;27.40;97305.63;4906551;29;20059;-66
2022/06/07 04:51:39;;;;;;;52.38;12.13;;;;;;;40.49;27.38;97314.00;4911607;29;20056;-66
2022/06/07 04:54:51;;;;;;;41.22;10.32;;;;;;;40.58;27.10;97303.44;4897273;29;20798;-68
2022/06/07 04:57:40;;;;;;;43.78;10.00;;;;;;;40.67;28.61;97309.13;4906611;29;20052;-67
2022/06/07 05:00:30;;;;;;;41.42;10.30;;;;;;;40.88;29.13;97302.63;4912643;29;20052;-68
2022/06/07 05:03:27;;;;;;;64.18;11.02;;;;;;;40.70;25.71;97314.00;4906459;29;20082;-66
2022/06/07 05:06:31;;;;;;;48.60;11.77;;;;;;;40.76;26.47;97302.13;4907696;29;20053;-68
2022/06/07 05:09:22;;;;;;;41.33;9.63;;;;;;;40.96;28.71;97301.25;4893620;29;20134;-68
2022/06/07 05:12:28;;;;;;;40.97;9.55;;;;;;;41.00;28.50;97296.91;4919260;29;20457;-67
2022/06/07 05:15:23;;;;;;;36.40;8.32;;;;;;;40.93;27.83;97291.81;4892374;29;20572;-67
2022/06/07 05:18:11;;;;;;;39.88;9.95;;;;;;;41.23;31.48;97289.03;4906058;29;20056;-64
2022/06/07 05:21:01;;;;;;;43.83;9.35;;;;;;;40.80;25.70;97298.56;4906868;29;20484;-64
2022/06/07 05:23:46;;;;;;;42.25;10.38;;;;;;;41.12;26.08;97294.72;4890008;29;20059;-66
2022/06/07 05:26:50;;;;;;;39.75;9.90;;;;;;;41.23;26.72;97297.13;4913102;29;20404;-63
2022/06/07 05:29:54;;;;;;;43.63;9.98;;;;;;;41.30;32.21;97285.19;4925674;29;20130;-66
2022/06/07 05:32:49;;;;;;;46.22;10.15;;;;;;;41.43;29.49;97287.31;4907593;29;20060;-64
2022/06/07 05:35:41;;;;;;;48.60;10.98;;;;;;;41.54;28.70;97283.50;4906397;29;20047;-64
2022/06/07 05:38:29;;;;;;;38.55;9.68;;;;;;;41.34;28.19;97278.16;4920834;29;20058;-66
2022/06/07 05:41:29;;;;;;;36.60;9.68;;;;;;;41.26;25.40;97268.75;4938439;29;20052;-66
2022/06/07 05:44:23;;;;;;;34.78;9.43;;;;;;;41.37;28.69;97274.88;4894449;29;20059;-66
2022/06/07 05:47:13;;;;;;;49.63;10.20;;;;;;;41.11;25.12;97272.28;4910021;29;20060;-66
2022/06/07 05:50:04;;;;;;;31.88;8.60;;;;;;;41.41;31.09;97270.56;4905149;29;20094;-64
2022/06/07 05:52:51;;;;;;;34.42;9.07;;;;;;;41.35;26.24;97280.56;4907573;29;20075;-65
2022/06/07 05:55:41;;;;;;;40.95;9.45;;;;;;;41.19;27.45;97271.72;4891574;29;20062;-67
2022/06/07 05:58:25;;;;;;;68.00;10.43;;;;;;;41.37;31.48;97269.47;4909942;29;20083;-66
2022/06/07 06:01:17;;;;;;;54.63;11.60;;;;;;;41.42;26.60;97274.88;4926495;29;20115;-66
2022/06/07 06:04:15;;;;;;;52.22;9.50;;;;;;;41.42;30.10;97266.78;4937646;29;20051;-65
2022/06/07 06:06:54;;;;;;;38.38;9.57;;;;;;;41.47;26.50;97266.72;4915798;29;20111;-66
2022/06/07 06:13:05;;;;;;;26.92;7.50;;;;;;;41.42;27.42;97261.34;4908349;29;20147;-65
2022/06/07 06:15:48;;;;;;;25.58;7.90;;;;;;;41.58;31.47;97243.97;4907319;29;20442;-65
2022/06/07 06:18:41;;;;;;;22.43;9.43;;;;;;;41.59;29.71;97251.00;4906825;29;20066;-66
2022/06/07 06:21:31;;;;;;;45.22;9.23;;;;;;;41.55;27.78;97250.75;4923742;29;20063;-65
2022/06/07 06:24:23;;;;;;;27.42;7.20;;;;;;;41.62;29.41;97253.16;4912015;29;20535;-65
2022/06/07 06:27:06;;;;;;;24.33;6.30;;;;;;;41.49;27.71;97257.25;4935010;28;20048;-66
2022/06/07 06:29:59;;;;;;;28.27;6.18;;;;;;;41.55;27.54;97253.47;4932471;28;20614;-65
2022/06/07 06:32:46;;;;;;;30.23;6.15;;;;;;;41.59;29.01;97240.16;4948916;28;20169;-66
2022/06/07 06:35:38;;;;;;;23.58;6.28;;;;;;;41.42;26.71;97239.72;4932624;28;20047;-65
2022/06/07 06:38:21;;;;;;;37.17;7.88;;;;;;;41.51;28.37;97238.84;4932821;29;20205;-65
2022/06/07 06:41:24;;;;;;;34.22;7.32;;;;;;;41.61;28.62;97241.50;4914673;29;20061;-65
2022/06/07 06:44:10;;;;;;;32.22;7.53;;;;;;;41.62;26.21;97235.00;4913654;29;20107;-65
2022/06/07 06:47:04;;;;;;;26.08;7.10;;;;;;;41.65;26.18;97228.25;4933870;29;20052;-64
2022/06/07 06:49:46;;;;;;;35.20;8.07;;;;;;;41.68;25.34;97229.56;4932762;29;20732;-65
2022/06/07 06:52:36;;;;;;;37.95;7.00;;;;;;;41.64;25.10;97238.25;4917017;29;20052;-64
2022/06/07 06:55:21;;;;;;;35.65;7.70;;;;;;;41.83;28.13;97224.84;4925649;28;20135;-65
2022/06/07 06:58:11;;;;;;;;;;;;;;;41.91;27.83;97223.44;4926542;28;20150;-65
2022/06/07 07:01:07;;;;;;;31.58;7.30;;;;;;;41.91;25.11;97216.13;4913740;28;20426;-65
2022/06/07 07:04:09;;;;;;;34.80;5.18;;;;;;;41.81;24.11;97221.63;4896437;29;20048;-66
2022/06/07 07:06:50;;;;;;;23.42;5.47;;;;;;;41.98;26.30;97216.66;4905053;29;20166;-65
2022/06/07 07:09:38;;;;;;;32.10;5.97;;;;;;;41.83;23.89;97218.66;4893075;29;20480;-65
2022/06/07 07:12:29;;;;;;;32.10;5.45;;;;;;;41.91;29.50;97208.00;4908232;29;20052;-65
2022/06/07 07:15:28;;;;;;;25.88;5.85;;;;;;;41.93;26.23;97211.25;4913108;29;20043;-66
2022/06/07 07:18:09;;;;;;;32.85;6.07;;;;;;;41.90;25.99;97203.69;4922806;29;20044;-63
2022/06/07 07:21:06;;;;;;;20.48;4.68;;;;;;;41.90;25.40;97203.69;4910087;29;20085;-65
2022/06/07 07:23:58;;;;;;;33.17;5.35;;;;;;;41.97;25.51;97198.78;4924579;29;20052;-65
2022/06/07 07:26:58;;;;;;;28.23;5.50;;;;;;;42.06;26.53;97185.47;4909766;29;20070;-66
2022/06/07 07:29:35;;;;;;;25.23;5.90;;;;;;;42.11;28.30;97190.00;4925066;29;20060;-66
2022/06/07 07:32:28;;;;;;;23.63;4.10;;;;;;;41.78;24.52;97184.31;4909277;29;20052;-66
2022/06/07 07:35:18;;;;;;;27.27;5.38;;;;;;;41.89;27.06;97183.13;4905790;29;20048;-66
2022/06/07 07:38:06;;;;;;;32.65;6.13;;;;;;;41.90;24.40;97182.03;4924870;29;20104;-65
2022/06/07 07:40:54;;;;;;;40.08;5.07;;;;;;;41.85;25.41;97175.84;4910279;29;20084;-66
2022/06/07 07:43:36;;;;;;;37.78;6.68;;;;;;;41.82;25.90;97174.53;4908951;29;20059;-67
2022/06/07 07:46:32;;;;;;;33.20;4.78;;;;;;;41.87;24.61;97171.78;4925081;29;20071;-65
2022/06/07 07:49:17;;;;;;;24.92;5.35;;;;;;;41.96;24.19;97178.22;4925193;29;20063;-67
2022/06/07 07:52:05;;;;;;;34.28;5.35;;;;;;;41.93;23.72;97170.66;4910496;29;20052;-66
2022/06/07 07:55:04;;;;;;;28.23;5.00;;;;;;;41.92;25.83;97163.63;4909320;29;20503;-66
2022/06/07 07:57:49;;;;;;;23.42;4.60;;;;;;;41.89;26.17;97158.78;4910239;29;20056;-66
2022/06/07 08:00:41;;;;;;;25.50;4.22;;;;;;;41.87;25.63;97149.31;4907878;29;20344;-64
2022/06/07 08:03:26;;;;;;;19.70;3.80;;;;;;;41.86;25.31;97153.09;4921574;29;20159;-64
2022/06/07 08:06:36;;;;;;;18.88;4.22;;;;;;;41.89;22.00;97152.56;4908833;29;20052;-64
2022/06/07 08:09:12;;;;;;;29.70;5.07;;;;;;;41.81;23.92;97151.28;4909695;29;20052;-65
2022/06/07 08:12:05;;;;;;;33.75;7.18;;;;;;;41.83;23.89;97149.06;4909687;29;20139;-66
2022/06/07 08:14:47;;;;;;;27.40;4.43;;;;;;;41.83;24.17;97137.47;4910054;29;20060;-64
2022/06/07 08:17:36;;;;;;;33.30;6.03;;;;;;;41.79;23.64;97131.78;4908754;29;20298;-67
2022/06/07 08:20:19;;;;;;;24.17;4.78;;;;;;;41.77;24.09;97131.25;4907034;29;20139;-66
2022/06/07 08:23:10;;;;;;;30.42;5.28;;;;;;;41.84;26.21;97134.44;4904456;29;20115;-64
2022/06/07 08:25:53;;;;;;;24.42;4.38;;;;;;;41.81;23.52;97134.22;4909977;29;20428;-65
2022/06/07 08:28:49;;;;;;;25.77;5.32;;;;;;;41.78;21.38;97135.59;4909474;29;20079;-65
2022/06/07 08:31:39;;;;;;;22.33;4.00;;;;;;;41.71;24.68;97118.06;4908361;29;20127;-66
2022/06/07 08:37:36;;;;;;;38.03;4.63;;;;;;;41.75;24.11;97119.91;4892061;29;20140;-65
2022/06/07 08:40:33;;;;;;;30.85;3.95;;;;;;;41.77;24.57;97119.63;4909306;29;20435;-65
2022/06/07 08:43:27;;;;;;;25.98;5.47;;;;;;;41.73;23.56;97118.59;4908556;29;20059;-65
2022/06/07 08:46:18;;;;;;;33.08;4.50;;;;;;;41.75;24.46;97111.00;4909001;29;20059;-63
2022/06/07 08:49:00;;;;;;;22.90;5.35;;;;;;;41.73;24.22;97111.28;4909017;29;20175;-64
2022/06/07 08:51:58;;;;;;;23.83;3.97;;;;;;;41.73;23.85;97095.06;4909262;29;20070;-64
2022/06/07 08:54:45;;;;;;;26.63;4.32;;;;;;;41.73;22.12;97105.06;4908699;29;20067;-64
2022/06/07 08:57:36;;;;;;;30.40;4.55;;;;;;;41.69;23.46;97098.59;4908756;29;20091;-65
2022/06/07 09:00:29;;;;;;;32.33;4.70;;;;;;;41.72;23.35;97096.13;4908613;29;20116;-65
2022/06/07 09:03:30;;;;;;;19.50;4.55;;;;;;;41.67;23.52;97100.81;4892655;29;20063;-63
2022/06/07 09:06:23;;;;;;;30.23;3.90;;;;;;;41.53;23.50;97089.81;4928405;29;20062;-64
2022/06/07 09:09:12;;;;;;;26.90;4.95;;;;;;;41.59;23.59;97085.97;4933121;28;20063;-64
2022/06/07 09:12:10;;;;;;;23.25;4.78;;;;;;;41.55;23.78;97090.34;4933655;28;20174;-66
2022/06/07 09:15:19;;;;;;;20.30;5.07;;;;;;;41.48;25.70;97079.00;4929749;28;20080;-63
2022/06/07 09:18:13;;;;;;;16.73;3.42;;;;;;;41.35;24.81;97076.97;4944447;28;20051;-63
2022/06/07 09:21:11;;;;;;;18.50;3.95;;;;;;;41.34;23.57;97080.75;4937173;28;20079;-64
2022/06/07 09:23:55;;;;;;;25.83;4.68;;;;;;;41.37;21.88;97080.16;4936137;28;20054;-64
2022/06/07 09:26:47;;;;;;;13.82;4.70;;;;;;;41.31;23.29;97070.50;4934846;29;20055;-64
2022/06/07 09:29:35;;;;;;;28.48;5.03;;;;;;;41.26;23.51;97068.66;4937824;28;20456;-64
2022/06/07 09:32:26;;;;;;;36.00;4.55;;;;;;;41.27;23.77;97062.94;4934219;28;20044;-65
2022/06/07 09:35:22;;;;;;;29.95;5.25;;;;;;;41.19;25.50;97054.63;4937345;29;20039;-65
2022/06/07 09:38:36;;;;;;;24.15;4.82;;;;;;;41.12;24.81;97068.44;4917553;29;20141;-65
2022/06/07 09:41:37;;;;;;;17.05;4.43;;;;;;;40.98;25.10;97066.63;4937465;28;20054;-65
2022/06/07 09:44:46;;;;;;;17.25;3.90;;;;;;;41.01;21.90;97066.09;4933026;29;20086;-64
2022/06/07 09:47:31;;;;;;;23.15;5.13;;;;;;;40.92;25.08;97068.56;4917161;29;20059;-65
2022/06/07 09:50:38;;;;;;;20.42;4.32;;;;;;;40.93;22.38;97061.28;4927829;29;20070;-64
2022/06/07 09:53:47;;;;;;;21.70;3.95;;;;;;;40.90;23.17;97070.75;4926934;29;20051;-64
2022/06/07 09:56:39;;;;;;;16.75;3.58;;;;;;;41.01;22.42;97055.28;4927074;29;20047;-65
2022/06/07 09:59:54;;;;;;;26.60;4.68;;;;;;;41.00;22.87;97059.06;4930810;29;20055;-66
2022/06/07 10:03:09;;;;;;;22.35;4.38;;;;;;;41.02;23.62;97063.13;4929887;29;20055;-63
2022/06/07 10:06:21;;;;;;;18.85;3.88;;;;;;;41.07;22.41;97062.25;4930309;29;20075;-64
2022/06/07 10:09:35;;;;;;;24.98;4.22;;;;;;;41.02;22.01;97055.00;4934594;29;20383;-65
2022/06/07 10:12:45;;;;;;;25.02;4.57;;;;;;;40.83;23.98;97048.63;4928848;29;20115;-65
2022/06/07 10:15:38;;;;;;;21.20;4.85;;;;;;;40.84;24.98;97058.34;4931035;29;20135;-64
2022/06/07 10:18:53;;;;;;;20.60;5.25;;;;;;;40.94;20.91;97055.59;4930777;29;20063;-64
2022/06/07 10:21:59;;;;;;;23.23;4.82;;;;;;;41.11;20.99;97066.84;4927760;29;20057;-64
2022/06/07 10:24:48;;;;;;;25.63;4.57;;;;;;;41.09;21.24;97066.34;4930768;29;21931;-64
2022/06/07 10:28:02;;;;;;;34.85;5.22;;;;;;;41.16;20.68;97064.13;4930831;29;20051;-63
2022/06/07 10:30:59;;;;;;;18.95;3.35;;;;;;;41.16;22.08;97047.09;4931174;29;20043;-65
2022/06/07 10:33:51;;;;;;;16.85;4.22;;;;;;;41.13;20.50;97053.84;4930089;29;20055;-63
2022/06/07 10:37:00;;;;;;;26.55;4.28;;;;;;;40.94;20.33;97050.19;4930236;29;20078;-65
2022/06/07 10:40:02;;;;;;;21.95;4.07;;;;;;;40.94;19.90;97058.28;4930470;29;20499;-64
2022/06/07 10:43:14;;;;;;;17.80;4.00;;;;;;;40.93;19.44;97051.28;4913313;29;20484;-65
2022/06/07 10:46:12;;;;;;;18.08;4.25;;;;;;;40.80;20.74;97054.59;4930772;29;20220;-65
2022/06/07 10:49:22;;;;;;;18.00;3.80;;;;;;;40.79;20.18;97042.19;4929224;29;20040;-65
2022/06/07 10:52:51;;;;;;;23.73;5.65;;;;;;;40.76;20.07;97056.25;4929242;29;20066;-65
2022/06/07 10:55:38;;;;;;;22.38;4.70;;;;;;;40.75;21.36;97047.31;4929951;29;20067;-64
2022/06/07 10:58:37;;;;;;;19.65;3.65;;;;;;;40.77;19.36;97047.06;4929598;29;20072;-64
2022/06/07 11:01:41;;;;;;;19.38;4.05;;;;;;;40.77;20.67;97044.34;4933645;29;20059;-64
2022/06/07 11:11:34;;;;;;;16.90;3.83;;;;;;;40.77;18.30;97038.94;4909235;29;20056;-64
2022/06/07 11:14:38;;;;;;;19.00;4.22;;;;;;;40.75;20.90;97033.81;4942608;29;20139;-63
2022/06/07 11:17:51;;;;;;;24.95;4.35;;;;;;;40.64;21.51;97029.53;4932812;29;20488;-65
2022/06/07 11:20:37;;;;;;;21.77;3.95;;;;;;;40.47;21.39;97027.19;4910840;29;20058;-64
2022/06/07 11:23:30;;;;;;;18.95;4.00;;;;;;;40.27;21.64;97019.19;4910431;29;20052;-66
2022/06/07 11:26:14;;;;;;;20.13;4.57;;;;;;;40.18;22.02;97015.41;4910791;29;20143;-65
2022/06/07 11:29:08;;;;;;;19.77;3.85;;;;;;;40.21;21.08;97020.28;4930229;29;20130;-65
2022/06/07 11:31:57;;;;;;;19.42;4.22;;;;;;;40.18;21.23;97015.41;4911120;29;20162;-65
2022/06/07 11:34:46;;;;;;;19.73;4.55;;;;;;;40.25;21.25;97015.94;4910761;29;20067;-65
2022/06/07 11:37:58;;;;;;;20.05;4.72;;;;;;;40.17;22.66;97003.00;4930166;29;20487;-66
2022/06/07 11:40:40;;;;;;;23.67;4.22;;;;;;;40.16;23.19;97009.47;4928924;29;20066;-65
2022/06/07 11:44:00;;;;;;;27.45;5.20;;;;;;;40.07;22.20;97011.94;4928850;29;20138;-65
2022/06/07 11:46:51;;;;;;;21.50;5.22;;;;;;;40.10;21.84;96999.78;4930598;29;20059;-66
2022/06/07 11:49:48;;;;;;;30.95;4.90;;;;;;;39.93;22.54;97005.50;4935312;29;20051;-66
2022/06/07 11:52:33;;;;;;;18.10;4.55;;;;;;;39.73;23.55;96998.28;4936449;29;20054;-66
2022/06/07 11:55:26;;;;;;;24.42;5.78;;;;;;;39.60;22.46;96998.00;4954558;29;20047;-66
2022/06/07 11:58:15;;;;;;;20.73;4.68;;;;;;;39.58;23.67;96994.81;4927634;29;20642;-65
2022/06/07 12:01:05;;;;;;;26.33;4.93;;;;;;;39.52;22.80;96995.88;4929441;29;20047;-64
2022/06/07 12:04:05;;;;;;;;;;;;;;;39.60;21.35;97004.22;4900396;29;20051;-65
2022/06/07 12:06:56;;;;;;;18.02;4.63;;;;;;;39.57;21.30;96998.56;4929168;29;19962;-65
2022/06/07 12:09:58;;;;;;;27.02;4.43;;;;;;;39.44;22.68;96999.94;4922426;29;20052;-64
2022/06/07 12:12:53;;;;;;;20.60;4.28;;;;;;;39.27;24.77;96999.41;4909701;29;20051;-64
2022/06/07 12:15:54;;;;;;;30.20;5.30;;;;;;;39.23;23.96;96993.72;4940776;28;20056;-65
2022/06/07 12:18:51;;;;;;;29.20;5.80;;;;;;;39.22;24.55;96999.38;4909283;29;20052;-66
2022/06/07 12:21:48;;;;;;;27.98;5.43;;;;;;;39.27;22.61;96994.78;4908888;29;20119;-65
2022/06/07 12:25:01;;;;;;;32.60;6.05;;;;;;;39.17;24.70;96991.31;4909187;29;20052;-67
2022/06/07 12:28:26;;;;;;;23.23;5.03;;;;;;;39.30;22.72;96996.13;4910024;29;20052;-66
2022/06/07 12:31:32;;;;;;;32.17;5.75;;;;;;;39.09;24.54;96997.22;4909052;29;20429;-65
2022/06/07 12:34:26;;;;;;;31.00;5.95;;;;;;;39.31;22.13;96998.56;4909518;29;20119;-65
2022/06/07 12:37:25;;;;;;;29.98;5.53;;;;;;;39.25;23.51;96996.16;4909697;29;20051;-65
2022/06/07 12:40:07;;;;;;;31.95;5.53;;;;;;;39.17;22.92;97000.19;4909663;29;20063;-64
2022/06/07 12:42:50;;;;;;;26.48;5.57;;;;;;;39.11;23.41;97003.97;4909264;29;20115;-66
2022/06/07 12:46:09;;;;;;;28.90;5.97;;;;;;;39.10;22.78;97010.44;4909717;29;20059;-65
2022/06/07 12:49:50;;;;;;;35.55;5.40;;;;;;;38.89;25.29;97014.16;4890913;29;20068;-67
2022/06/07 12:52:56;;;;;;;21.75;5.50;;;;;;;38.66;26.55;97010.88;4912998;29;20058;-67
2022/06/07 12:55:39;;;;;;;33.80;5.78;;;;;;;38.46;26.54;97010.81;4913171;28;20052;-67
2022/06/07 12:58:42;;;;;;;22.70;5.05;;;;;;;38.39;25.33;97012.97;4916293;29;20575;-66
2022/06/07 13:01:56;;;;;;;26.60;5.72;;;;;;;38.32;24.72;97009.69;4916347;29;20135;-65
2022/06/07 13:04:58;;;;;;;57.67;10.57;;;;;;;38.25;24.97;97026.06;4914745;29;20052;-67
2022/06/07 13:07:57;;;;;;;35.00;6.13;;;;;;;38.09;26.09;97016.31;4902647;29;20043;-65
2022/06/07 13:10:54;;;;;;;26.90;7.10;;;;;;;37.99;25.74;97018.94;4906513;29;20043;-65
2022/06/07 13:14:00;;;;;;;20.88;5.70;;;;;;;37.89;26.05;97024.28;4908393;29;20056;-65
2022/06/07 13:16:56;;;;;;;34.88;7.95;;;;;;;37.77;26.46;97024.47;4922182;29;20080;-65
2022/06/07 13:19:56;;;;;;;29.70;6.03;;;;;;;37.82;24.91;97029.06;4920051;29;20535;-69
2022/06/07 13:22:51;;;;;;;27.35;5.85;;;;;;;37.78;25.51;97022.59;4916659;29;20099;-66
2022/06/07 13:25:40;;;;;;;24.90;5.82;;;;;;;37.65;25.18;97029.25;4917968;29;20139;-66
2022/06/07 13:28:33;;;;;;;24.92;5.60;;;;;;;37.56;25.82;97033.44;4914019;29;20131;-65
2022/06/07 13:31:59;;;;;;;30.48;7.28;;;;;;;37.41;25.27;97031.47;4917884;29;20054;-66
2022/06/07 13:35:06;;;;;;;23.40;5.53;;;;;;;37.31;26.15;97035.94;4913145;29;20048;-66
2022/06/07 13:38:05;;;;;;;38.08;7.40;;;;;;;37.13;28.85;97029.88;4906123;29;20585;-65
2022/06/07 13:41:08;;;;;;;32.72;6.18;;;;;;;37.01;29.06;97037.28;4908793;29;20795;-66